This is the latest recevied weather packets stored in our database for station/object TG5ALY-16. If no packets are shown the sender has not sent any weather packets the latest 10 day(s).
| Time | Temp. | Humidity | Pressure | Rain* | Wind** | Luminosity | Snow |
|---|---|---|---|---|---|---|---|
| 1778008087 | 23.89° C | 51% | 1013 hPa | 0 mm | - | - | - |
| 1778007487 | 23.89° C | 37% | 1013 hPa | 0 mm | - | - | - |
| 1778006886 | 23.89° C | 39% | 1013 hPa | 0 mm | - | - | - |
| 1778006285 | 23.33° C | 43% | 1014 hPa | 0 mm | - | - | - |
| 1778005685 | 23.33° C | 43% | 1015 hPa | 0 mm | - | - | - |
| 1778005084 | 22.78° C | 46% | 1015 hPa | 0 mm | - | - | - |
| 1778004484 | 22.78° C | 47% | 1015 hPa | 0 mm | - | - | - |
| 1778003883 | 22.22° C | 53% | 1015 hPa | 0 mm | - | - | - |
| 1778003282 | 21.67° C | 58% | 1015 hPa | 0 mm | - | - | - |
| 1778002681 | 21.67° C | 58% | 1015 hPa | 0 mm | - | - | - |
| 1778002081 | 21.67° C | 58% | 1015 hPa | 0 mm | - | - | - |
| 1778001480 | 21.67° C | 58% | 1015 hPa | 0 mm | - | - | - |
| 1778000879 | 21.67° C | 58% | 1015 hPa | 0 mm | - | - | - |
| 1778000279 | 22.22° C | 56% | 1015 hPa | 0 mm | - | - | - |
| 1777999678 | 22.22° C | 56% | 1015 hPa | 0 mm | - | - | - |
| 1777999078 | 21.11° C | 57% | 1016 hPa | 0 mm | - | - | - |
| 1777998477 | 21.11° C | 57% | 1016 hPa | 0 mm | - | - | - |
| 1777997876 | 20.56° C | 57% | 1016 hPa | 0 mm | - | - | - |
| 1777997276 | 20.56° C | 57% | 1016 hPa | 0 mm | - | - | - |
| 1777996675 | 20.56° C | 60% | 1016 hPa | 0 mm | - | - | - |
| 1777996074 | 20.56° C | 60% | 1016 hPa | 0 mm | - | - | - |
| 1777995474 | 18.89° C | 64% | 1016 hPa | 0 mm | - | - | - |
| 1777994873 | 18.89° C | 64% | 1017 hPa | 0 mm | - | - | - |
| 1777994272 | 17.78° C | 72% | 1017 hPa | 0 mm | - | - | - |
| 1777993672 | 17.78° C | 72% | 1017 hPa | 0 mm | - | - | - |
* Rain latest hour (hover to see other rain measurements)
** Current wind speed in m/s (hover to see current wind gust speed)